Карточка аэропорта URKA

Внимание!
Информация на этой странице в стадии наполнения.
Если вы не увидели какой-то информации, или заметили неточность - пожалуйста сообщите нам!
Спасибо!
Команда RU-STAFF
Название аэропортаВитязево
Название аэропорта (англ.)Vityazevo
Превышение176 ft. (53.6 m.)
Координаты45°0.13200000000012', 37°20.832'
Высота перехода4000 ft
Эшелон переходаFL50 (QNH >= 1013); FL60 (QNH 977-1012); FL70 (QNH < 977)
Коды ответчика1040-1047
Зона ОрВДРостов-на-Дону РПИ (URRV)
Данные METARURKA 121930Z 21004MPS 4400 BR BKN002 11/11 Q1020 R22/010070 TEMPO 0200 FG BKN004 RMK QBB070 OBST OBSC QFE760/1013
Проноз погоды (TAF)URKA 121716Z 1218/1318 22003G08MPS 2000 BR SCT005 BKN016 TEMPO 1218/1306 0200 FG OVC001 FM130600 20006G11MPS 9999 BKN020CB TEMPO 1306/1318 22008G13MPS 6000 -SHRA SCT005 BKN016CB
NOTAMshow/hide NOTAM
AWOS   TABLE

Информация о ВПП

ВПП Длина ВПП (м.) Покрытие Курс ВПП Частота ILS
222500Цементобетон216 
042500Цементобетон36109.1

Диспетчерские позиции

Позывной Наименование органа УВД Частота
URKA_R_APPАнапа-Круг118.7
URKA_TWRАнапа-Старт119.8
URKA_GNDАнапа-Руление119.0
URKAFM1119,0



Спутниковое изображение